createdAt,value
2022-08-19T00:00:21.542Z,25.02
2022-08-19T00:05:27.116Z,26.60
2022-08-19T00:10:30.981Z,21.80
2022-08-19T00:15:34.311Z,26.40
2022-08-19T00:20:39.488Z,25.35
2022-08-19T00:25:42.815Z,24.95
2022-08-19T00:30:52.930Z,30.92
2022-08-19T00:35:57.864Z,26.33
2022-08-19T00:41:01.049Z,26.50
2022-08-19T00:46:05.776Z,27.10
2022-08-19T00:51:11.190Z,26.05
2022-08-19T00:56:17.093Z,24.92
2022-08-19T01:01:21.034Z,30.55
2022-08-19T01:06:29.796Z,40.80
2022-08-19T01:11:35.257Z,28.02
2022-08-19T01:16:39.945Z,31.73
2022-08-19T01:21:54.646Z,27.95
2022-08-19T01:26:59.511Z,25.55
2022-08-19T01:32:03.739Z,22.00
2022-08-19T01:37:12.012Z,32.88
2022-08-19T01:42:16.682Z,24.85
2022-08-19T01:47:20.320Z,29.08
2022-08-19T01:52:23.699Z,26.70
2022-08-19T01:57:28.354Z,26.88
2022-08-19T02:02:31.653Z,23.15
2022-08-19T02:07:35.172Z,26.88
2022-08-19T02:12:42.723Z,30.42
2022-08-19T02:17:45.993Z,24.08
2022-08-19T02:22:49.226Z,26.60
2022-08-19T02:27:54.793Z,32.10
2022-08-19T02:32:59.024Z,27.90
2022-08-19T02:38:20.045Z,29.60
2022-08-19T02:43:26.781Z,27.48
2022-08-19T02:48:34.431Z,25.38
2022-08-19T02:53:38.334Z,28.25
2022-08-19T02:58:44.118Z,27.67
2022-08-19T03:03:47.566Z,29.15
2022-08-19T03:08:51.424Z,32.50
2022-08-19T03:13:56.344Z,31.80
2022-08-19T03:19:03.533Z,31.60
2022-08-19T03:24:09.540Z,26.45
2022-08-19T03:29:14.768Z,32.28
2022-08-19T03:34:32.303Z,28.02
2022-08-19T03:39:36.175Z,35.45
2022-08-19T03:44:41.006Z,30.00
2022-08-19T03:49:44.434Z,28.20
2022-08-19T03:54:47.646Z,28.25
2022-08-19T03:59:52.265Z,40.33
2022-08-19T04:04:56.567Z,29.55
2022-08-19T04:10:00.342Z,33.58
2022-08-19T04:15:06.517Z,39.28
2022-08-19T04:20:11.152Z,28.20
2022-08-19T04:25:14.625Z,29.08
2022-08-19T04:30:20.365Z,26.85
2022-08-19T04:35:25.015Z,34.55
2022-08-19T04:40:45.528Z,31.20
2022-08-19T04:45:56.864Z,33.03
2022-08-19T04:51:09.128Z,30.75
2022-08-19T04:56:14.689Z,34.78
2022-08-19T05:01:21.967Z,34.58
2022-08-19T05:06:25.928Z,31.55
2022-08-19T05:11:31.580Z,35.33
2022-08-19T05:16:36.709Z,34.33
2022-08-19T05:21:58.391Z,32.45
2022-08-19T05:27:03.559Z,31.88
2022-08-19T05:32:09.856Z,35.28
2022-08-19T05:37:13.138Z,32.97
2022-08-19T05:42:16.518Z,37.67
2022-08-19T05:47:21.661Z,36.67
2022-08-19T05:52:25.919Z,33.15
2022-08-19T05:57:30.154Z,33.65
2022-08-19T06:02:36.198Z,39.60
2022-08-19T06:07:41.034Z,36.00
2022-08-19T06:12:44.278Z,31.83
2022-08-19T06:17:48.889Z,28.98
2022-08-19T06:22:52.589Z,29.17
2022-08-19T06:28:14.073Z,26.98
2022-08-19T06:33:19.842Z,31.90
2022-08-19T06:38:24.581Z,38.40
2022-08-19T06:43:28.196Z,31.23
2022-08-19T06:48:37.729Z,35.53
2022-08-19T06:58:52.885Z,33.92
2022-08-19T07:03:57.600Z,30.92
2022-08-19T07:09:01.922Z,29.88
2022-08-19T07:14:07.633Z,26.10
2022-08-19T07:19:25.496Z,32.00
2022-08-19T07:24:31.210Z,27.73
2022-08-19T07:29:38.733Z,29.73
2022-08-19T07:34:43.329Z,32.65
2022-08-19T07:39:46.603Z,28.95
2022-08-19T07:44:50.543Z,32.50
2022-08-19T07:49:55.511Z,28.38
2022-08-19T07:55:01.036Z,31.73
2022-08-19T08:00:07.101Z,32.88
2022-08-19T08:05:29.438Z,40.72
2022-08-19T08:10:33.499Z,39.70
2022-08-19T08:15:42.750Z,32.25
2022-08-19T08:20:48.048Z,39.42
2022-08-19T08:25:51.555Z,33.88
2022-08-19T08:30:55.432Z,33.53
2022-08-19T08:36:00.043Z,36.97
2022-08-19T08:41:20.482Z,29.25
2022-08-19T08:46:32.865Z,27.92
2022-08-19T08:56:48.136Z,30.95
2022-08-19T09:01:55.001Z,34.15
2022-08-19T09:07:26.208Z,29.02
2022-08-19T09:12:44.761Z,25.67
2022-08-19T09:17:50.573Z,29.35
2022-08-19T09:22:55.154Z,26.10
2022-08-19T09:28:02.264Z,25.02
2022-08-19T09:33:07.314Z,27.25
2022-08-19T09:38:11.956Z,24.45
2022-08-19T09:43:15.164Z,25.05
2022-08-19T09:48:36.788Z,20.80
2022-08-19T09:53:41.536Z,22.33
2022-08-19T09:58:44.677Z,28.33
2022-08-19T10:03:51.824Z,27.13
2022-08-19T10:08:56.375Z,27.73
2022-08-19T10:14:00.775Z,27.35
2022-08-19T10:19:05.955Z,20.92
2022-08-19T10:24:10.600Z,35.88
2022-08-19T10:29:14.882Z,29.15
2022-08-19T10:34:37.218Z,26.70
2022-08-19T10:39:53.335Z,22.35
2022-08-19T10:44:56.560Z,26.42
2022-08-19T10:50:19.099Z,29.25
2022-08-19T10:55:43.283Z,29.05
2022-08-19T11:00:54.241Z,24.58
2022-08-19T11:06:01.748Z,27.58
2022-08-19T11:11:07.777Z,27.23
2022-08-19T11:16:15.107Z,28.45
2022-08-19T11:21:21.826Z,34.33
2022-08-19T11:26:26.964Z,32.00
2022-08-19T11:31:32.761Z,32.03
2022-08-19T11:36:36.934Z,31.80
2022-08-19T11:41:42.627Z,33.60
2022-08-19T11:46:47.455Z,33.42
2022-08-19T11:51:51.375Z,30.98
2022-08-19T11:56:57.195Z,31.60
2022-08-19T12:02:00.561Z,32.65
2022-08-19T12:07:04.374Z,31.67
2022-08-19T12:12:09.898Z,34.58
2022-08-19T12:17:14.429Z,30.20
2022-08-19T12:22:17.796Z,32.10
2022-08-19T12:27:32.293Z,29.55
2022-08-19T12:32:43.805Z,31.85
2022-08-19T12:37:56.738Z,28.65
2022-08-19T12:43:02.303Z,27.75
2022-08-19T12:48:33.843Z,28.27
2022-08-19T12:53:30.000Z,26.35
2022-08-19T12:58:35.621Z,28.90
2022-08-19T13:03:40.769Z,26.05
2022-08-19T13:08:46.628Z,24.23
2022-08-19T13:13:56.257Z,24.27
2022-08-19T13:19:00.171Z,27.73
2022-08-19T13:24:03.473Z,27.00
2022-08-19T13:30:38.220Z,23.13
2022-08-19T13:47:08.316Z,25.02
2022-08-19T13:52:12.935Z,25.42
2022-08-19T14:03:33.158Z,25.95
2022-08-19T14:47:57.036Z,23.35
2022-08-19T14:53:04.378Z,26.25
2022-08-19T14:58:29.451Z,29.42
2022-08-19T15:03:35.398Z,24.27
2022-08-19T15:08:40.528Z,23.55
2022-08-19T15:13:44.939Z,20.23
2022-08-19T15:18:53.382Z,18.90
2022-08-19T15:23:59.812Z,19.00
2022-08-19T15:29:04.375Z,21.52
2022-08-19T15:34:09.424Z,15.00
2022-08-19T15:39:12.733Z,17.67
2022-08-19T15:44:18.713Z,17.52
2022-08-19T15:49:23.561Z,20.88
2022-08-19T15:54:27.568Z,19.45
2022-08-19T15:59:48.527Z,17.27
2022-08-19T16:05:12.945Z,20.50
2022-08-19T16:10:27.101Z,24.83
2022-08-19T16:15:36.278Z,21.63
2022-08-19T16:20:41.082Z,23.50
2022-08-19T16:25:44.413Z,22.73
2022-08-19T16:30:51.020Z,21.77
2022-08-19T16:36:00.164Z,22.85
2022-08-19T16:41:03.866Z,27.35
2022-08-19T16:46:07.432Z,17.98
2022-08-19T16:51:13.102Z,23.35
2022-08-19T16:56:16.520Z,20.20
2022-08-19T17:01:20.116Z,22.55
2022-08-19T17:06:29.545Z,21.15
2022-08-19T17:11:33.912Z,19.70
2022-08-19T17:16:38.213Z,20.08
2022-08-19T17:21:42.862Z,22.52
2022-08-19T17:26:47.141Z,20.60
2022-08-19T17:31:50.960Z,21.58
2022-08-19T17:36:56.777Z,20.63
2022-08-19T17:42:02.984Z,23.98
2022-08-19T17:47:06.843Z,20.42
2022-08-19T17:52:12.018Z,15.10
2022-08-19T17:57:15.378Z,17.52
2022-08-19T18:02:19.864Z,16.92
2022-08-19T18:07:26.791Z,13.85
2022-08-19T18:12:35.883Z,16.02
2022-08-19T18:17:39.472Z,18.30
2022-08-19T18:22:46.851Z,14.90
2022-08-19T18:27:50.452Z,16.50
2022-08-19T18:32:55.024Z,18.52
2022-08-19T18:38:22.430Z,17.02
2022-08-19T18:43:42.049Z,15.80
2022-08-19T18:49:02.944Z,15.82
2022-08-19T18:54:08.238Z,12.98
2022-08-19T18:59:11.947Z,13.35
2022-08-19T19:04:15.749Z,13.82
2022-08-19T19:09:23.185Z,14.63
2022-08-19T19:14:48.209Z,15.00
2022-08-19T19:19:51.767Z,14.00
2022-08-19T19:24:59.614Z,16.75
2022-08-19T19:30:03.609Z,15.95
2022-08-19T19:35:10.801Z,15.10
2022-08-19T19:40:16.538Z,15.60
2022-08-19T19:45:22.599Z,16.45
2022-08-19T19:50:26.024Z,10.60
2022-08-19T19:55:30.921Z,11.48
2022-08-19T20:00:34.578Z,11.13
2022-08-19T20:05:40.820Z,11.00
2022-08-19T20:10:46.985Z,15.00
2022-08-19T20:15:53.118Z,13.60
2022-08-19T20:20:56.579Z,14.32
2022-08-19T20:26:01.372Z,17.92
2022-08-19T20:31:04.894Z,16.45
2022-08-19T20:36:08.790Z,14.82
2022-08-19T20:41:13.728Z,20.27
2022-08-19T20:46:17.173Z,14.05
2022-08-19T20:51:21.071Z,16.33
2022-08-19T20:56:25.781Z,18.10
2022-08-19T21:01:29.081Z,20.38
2022-08-19T21:06:32.344Z,12.45
2022-08-19T21:11:37.984Z,14.88
2022-08-19T21:16:41.283Z,14.65
2022-08-19T21:21:44.550Z,14.25
2022-08-19T21:26:51.364Z,13.75
2022-08-19T21:31:54.886Z,14.13
2022-08-19T21:36:58.277Z,18.08
2022-08-19T21:42:03.034Z,12.55
2022-08-19T21:47:06.618Z,11.70
2022-08-19T21:52:14.049Z,9.45
2022-08-19T21:57:19.121Z,11.25
2022-08-19T22:02:22.685Z,10.85
2022-08-19T22:07:25.960Z,7.50
2022-08-19T22:12:32.769Z,10.80
2022-08-19T22:17:36.324Z,11.48
2022-08-19T22:22:45.817Z,9.48
2022-08-19T22:27:51.380Z,9.73
2022-08-19T22:33:02.822Z,10.88
2022-08-19T22:38:08.305Z,10.95
2022-08-19T22:43:18.636Z,6.50
2022-08-19T22:48:24.087Z,6.60
2022-08-19T22:53:28.491Z,7.85
2022-08-19T22:58:33.105Z,6.72
2022-08-19T23:03:36.438Z,7.90
2022-08-19T23:08:39.927Z,5.68
2022-08-19T23:13:45.392Z,8.73
2022-08-19T23:18:48.697Z,5.68
2022-08-19T23:23:57.655Z,4.07
2022-08-19T23:29:19.952Z,4.22
2022-08-19T23:34:23.164Z,4.03
2022-08-19T23:39:29.913Z,3.40
2022-08-19T23:44:34.972Z,4.55
2022-08-19T23:49:55.044Z,9.43
2022-08-19T23:55:01.783Z,6.43
